LBSF

Sofia Airport

Sofia, Bulgaria
TAF LBSF 201100Z 2012/2112 32014KT 9999 SCT040 BKN060 PROB40 TEMPO 2012/2017 5000 TSRA SCT030CB BKN040 BECMG 2020/2022 VRB04KT BECMG 2108/2110 32010KT
Issued Valid From Valid To
Jul-20 @ 11:00 UTC
(4 hours ago)
Jul-20 @ 12:00 UTC
(3 hours ago)
Jul-21 @ 12:00 UTC
(in 21 hours)
Jul-20 @ 12:00 to Jul-20 @ 20:00
TAF LBSF 201100Z 2012/2112 32014KT 9999 SCT040 BKN060
Wind Visibility Clouds
320° at 14 knots 10,000+ meters
  • Scattered at 4,000' AGL
  • Broken at 6,000' AGL
Temporary  (Probability 40%) Jul-20 @ 12:00 to Jul-20 @ 17:00
PROB40 TEMPO 2012/2017 5000 TSRA SCT030CB BKN040
Visibility Clouds Conditions
5,005 meters
  • Scattered at 3,000' AGL
  • Broken at 4,000' AGL
  • Thunderstorm
  • Rain
Becoming Jul-20 @ 20:00 to Jul-21 @ 08:00
BECMG 2020/2022 VRB04KT
Wind Visibility Clouds
Variable at 4 knots 10,000+ meters
  • Scattered at 4,000' AGL
  • Broken at 6,000' AGL
Becoming Jul-21 @ 08:00 to Jul-21 @ 12:00
BECMG 2108/2110 32010KT
Wind Visibility Clouds
320° at 10 knots 10,000+ meters
  • Scattered at 4,000' AGL
  • Broken at 6,000' AGL
TAF LBSF 201100Z 2012/2112 32014KT 9999 SCT040 BKN060 PROB40 TEMPO 2012/2017 5000 TSRA SCT030CB BKN040 BECMG 2020/2022 VRB04KT BECMG 2108/2110 32010KT
Issued Jul-20 @ 11:00 UTC
(4 hours ago)
Valid From Jul-20 @ 12:00 UTC
(3 hours ago)
Valid To Jul-21 @ 12:00 UTC
(in 21 hours)
Jul-20 @ 12:00 - Jul-20 @ 20:00
Wind Visibility
320° at 14 knots 10,000+ meters
Clouds
  • Scattered at 4,000' AGL
  • Broken at 6,000' AGL
Probability 40% Temporary Jul-20 @ 12:00 - Jul-20 @ 17:00
Clouds
  • Scattered at 3,000' AGL
  • Broken at 4,000' AGL
Conditions
  • Thunderstorm
  • Rain
Becoming Jul-20 @ 20:00 - Jul-21 @ 08:00
Wind Visibility
Variable at 4 knots 10,000+ meters
Clouds
  • Scattered at 4,000' AGL
  • Broken at 6,000' AGL
Becoming Jul-21 @ 08:00 - Jul-21 @ 12:00
Wind Visibility
320° at 10 knots 10,000+ meters
Clouds
  • Scattered at 4,000' AGL
  • Broken at 6,000' AGL